Time;durP1;ratioP1;P1;durP2;ratioP2;P2;SDS_P1;SDS_P2;PMS_P1;PMS_P2;Temp;Humidity;BMP_temperature;BMP_pressure;BME280_temperature;BME280_humidity;BME280_pressure;Samples;Min_cycle;Max_cycle;Signal;HPM_P1;HPM_P2
2023/09/07 00:01:08;;;;;;;4.53;4.13;;;22.00;74.20;;;;;;4971506;28;20507;-68
2023/09/07 00:03:40;;;;;;;4.30;3.93;;;22.00;74.40;;;;;;4979362;28;20457;-67
2023/09/07 00:06:09;;;;;;;4.40;4.00;;;22.00;74.20;;;;;;4979266;28;20458;-67
2023/09/07 00:08:38;;;;;;;3.67;3.37;;;22.00;74.50;;;;;;4981754;28;20470;-67
2023/09/07 00:11:07;;;;;;;4.63;4.23;;;22.10;74.30;;;;;;4980823;28;20461;-67
2023/09/07 00:13:36;;;;;;;4.13;3.83;;;22.10;74.20;;;;;;4991330;28;20451;-66
2023/09/07 00:16:05;;;;;;;5.80;3.70;;;22.00;74.00;;;;;;4990814;28;20533;-66
2023/09/07 00:18:34;;;;;;;4.43;4.13;;;22.00;74.10;;;;;;4986791;28;20478;-66
2023/09/07 00:21:02;;;;;;;4.40;4.10;;;22.00;74.30;;;;;;4983142;28;20496;-66
2023/09/07 00:23:31;;;;;;;4.10;3.80;;;22.00;74.20;;;;;;4987352;28;20468;-66
2023/09/07 00:25:59;;;;;;;4.33;4.03;;;22.00;74.10;;;;;;4970472;28;20459;-67
2023/09/07 00:28:27;;;;;;;5.10;4.63;;;22.00;74.40;;;;;;4971241;28;20428;-67
2023/09/07 00:30:57;;;;;;;4.50;4.10;;;22.00;74.20;;;;;;4971314;28;20451;-67
2023/09/07 00:33:26;;;;;;;3.93;3.63;;;22.00;74.40;;;;;;4978688;28;20462;-67
2023/09/07 00:35:54;;;;;;;4.70;4.40;;;22.10;74.40;;;;;;4990693;28;20447;-67
2023/09/07 00:38:22;;;;;;;4.07;3.67;;;22.10;74.30;;;;;;4980759;28;20972;-66
2023/09/07 00:40:50;;;;;;;4.50;4.20;;;22.10;74.30;;;;;;4984620;28;20862;-67
2023/09/07 00:43:18;;;;;;;3.93;3.63;;;22.00;74.30;;;;;;4975842;28;20457;-67
2023/09/07 00:45:47;;;;;;;4.13;3.83;;;22.00;74.30;;;;;;4990732;28;20431;-66
2023/09/07 00:48:17;;;;;;;4.73;4.33;;;22.00;74.50;;;;;;4987387;28;20990;-67
2023/09/07 00:50:46;;;;;;;4.67;4.27;;;22.00;74.40;;;;;;4988400;28;20463;-67
2023/09/07 00:53:15;;;;;;;5.40;4.40;;;22.00;74.20;;;;;;4989842;28;20502;-66
2023/09/07 00:55:45;;;;;;;4.37;4.07;;;22.00;74.40;;;;;;4990268;28;20507;-66
2023/09/07 00:58:14;;;;;;;4.17;3.77;;;21.90;74.60;;;;;;4989711;28;20474;-67
2023/09/07 01:00:42;;;;;;;4.83;4.50;;;22.00;74.70;;;;;;4987759;28;20786;-66
2023/09/07 01:03:10;;;;;;;4.77;4.23;;;22.00;74.60;;;;;;4975056;28;20490;-67
2023/09/07 01:05:48;;;;;;;3.70;3.50;;;22.00;74.30;;;;;;4989003;28;20509;-67
2023/09/07 01:08:26;;;;;;;4.37;4.07;;;21.90;74.60;;;;;;4988954;28;20942;-66
2023/09/07 01:10:54;;;;;;;4.67;4.37;;;21.90;74.10;;;;;;4987534;28;20867;-68
2023/09/07 01:13:22;;;;;;;4.63;4.33;;;21.80;74.50;;;;;;4990086;28;20434;-66
2023/09/07 01:15:51;;;;;;;5.13;4.73;;;21.80;74.50;;;;;;4988613;28;20460;-66
2023/09/07 01:18:20;;;;;;;4.50;4.20;;;21.80;74.30;;;;;;4970837;28;20474;-66
2023/09/07 01:21:08;;;;;;;5.00;4.60;;;21.70;74.70;;;;;;4968873;28;20595;-66
2023/09/07 01:23:40;;;;;;;5.00;4.60;;;21.70;74.40;;;;;;4976598;28;20446;-66
2023/09/07 01:26:11;;;;;;;4.53;4.20;;;21.70;74.90;;;;;;5006098;28;20519;-66
2023/09/07 01:28:39;;;;;;;5.10;4.60;;;21.70;74.60;;;;;;5047808;28;20453;-67
2023/09/07 01:31:07;;;;;;;4.37;4.00;;;21.80;74.70;;;;;;5026576;28;20937;-66
2023/09/07 01:33:35;;;;;;;4.30;3.90;;;21.80;75.00;;;;;;5008028;28;20451;-67
2023/09/07 01:36:04;;;;;;;6.00;4.90;;;21.80;74.80;;;;;;4988278;28;20840;-67
2023/09/07 01:38:33;;;;;;;4.83;4.43;;;21.80;75.20;;;;;;4988347;28;20487;-68
2023/09/07 01:41:02;;;;;;;4.50;4.03;;;21.80;75.00;;;;;;4972491;28;20967;-66
2023/09/07 01:43:31;;;;;;;5.40;5.00;;;21.80;75.00;;;;;;4987062;28;20470;-67
2023/09/07 01:45:59;;;;;;;4.73;4.33;;;21.80;75.10;;;;;;4970016;28;20436;-67
2023/09/07 01:48:27;;;;;;;4.87;4.57;;;21.80;75.10;;;;;;4969066;28;20458;-66
2023/09/07 01:50:56;;;;;;;5.10;4.73;;;21.80;75.00;;;;;;4969883;28;20574;-67
2023/09/07 01:53:24;;;;;;;4.37;4.07;;;21.80;75.20;;;;;;4972424;28;20519;-67
2023/09/07 01:55:55;;;;;;;4.50;4.20;;;21.80;75.20;;;;;;4987439;28;20462;-67
2023/09/07 01:58:25;;;;;;;4.60;4.30;;;21.70;75.30;;;;;;4976383;28;20466;-66
2023/09/07 02:00:58;;;;;;;5.00;4.60;;;21.70;75.30;;;;;;4974188;28;20462;-67
2023/09/07 02:03:27;;;;;;;5.20;4.70;;;21.60;75.30;;;;;;4974477;28;20461;-67
2023/09/07 02:05:55;;;;;;;5.80;5.40;;;21.70;75.40;;;;;;4987065;28;20512;-68
2023/09/07 02:08:23;;;;;;;5.67;5.20;;;21.70;75.40;;;;;;4976374;28;20470;-67
2023/09/07 02:10:51;;;;;;;4.83;4.43;;;21.60;75.50;;;;;;4976739;28;20497;-68
2023/09/07 02:13:19;;;;;;;5.47;5.07;;;21.60;75.50;;;;;;4987790;28;20476;-67
2023/09/07 02:15:48;;;;;;;5.17;4.77;;;21.60;75.40;;;;;;4988796;28;20445;-67
2023/09/07 02:18:17;;;;;;;5.50;5.00;;;21.60;75.50;;;;;;4986541;28;20450;-67
2023/09/07 02:20:45;;;;;;;4.90;4.53;;;21.60;75.70;;;;;;4986164;28;21007;-66
2023/09/07 02:23:13;;;;;;;4.40;4.10;;;21.60;75.70;;;;;;4974801;28;20467;-68
2023/09/07 02:25:42;;;;;;;4.83;4.53;;;21.50;75.80;;;;;;4988841;28;20450;-68
2023/09/07 02:28:10;;;;;;;4.23;3.90;;;21.60;75.90;;;;;;4984350;28;21064;-67
2023/09/07 02:30:38;;;;;;;5.63;5.10;;;21.60;75.50;;;;;;4968366;28;20870;-68
2023/09/07 02:33:08;;;;;;;5.20;4.80;;;21.60;75.70;;;;;;4970788;28;20446;-68
2023/09/07 02:35:38;;;;;;;6.10;5.50;;;21.70;75.40;;;;;;4979136;28;20459;-67
2023/09/07 02:38:06;;;;;;;5.33;4.93;;;21.70;75.40;;;;;;4982060;28;20458;-67
2023/09/07 02:40:41;;;;;;;5.93;5.43;;;21.70;75.10;;;;;;4986356;28;20931;-68
2023/09/07 02:43:09;;;;;;;6.80;6.10;;;21.70;75.20;;;;;;4984772;28;20465;-66
2023/09/07 02:45:38;;;;;;;5.10;4.60;;;21.70;75.20;;;;;;4988631;28;20434;-67
2023/09/07 02:48:08;;;;;;;5.63;5.13;;;21.70;75.10;;;;;;4980887;28;20455;-66
2023/09/07 02:50:39;;;;;;;5.70;5.23;;;21.60;75.30;;;;;;4967695;28;20554;-67
2023/09/07 02:53:08;;;;;;;5.80;5.40;;;21.60;75.50;;;;;;4969745;28;20459;-66
2023/09/07 02:55:36;;;;;;;5.73;5.33;;;21.50;75.60;;;;;;4992156;28;20458;-67
2023/09/07 02:58:04;;;;;;;5.20;4.80;;;21.50;76.20;;;;;;4990553;28;20474;-67
2023/09/07 03:00:34;;;;;;;6.77;5.10;;;21.50;75.80;;;;;;4990718;28;20470;-67
2023/09/07 03:03:03;;;;;;;6.30;5.80;;;21.50;76.20;;;;;;4990670;28;20458;-67
2023/09/07 03:05:33;;;;;;;4.90;4.50;;;21.50;75.80;;;;;;4989904;28;20470;-67
2023/09/07 03:08:03;;;;;;;6.03;5.43;;;21.40;76.10;;;;;;4979075;28;20477;-67
2023/09/07 03:10:31;;;;;;;6.70;6.07;;;21.50;75.90;;;;;;4971149;28;20457;-66
2023/09/07 03:12:59;;;;;;;5.73;5.33;;;21.50;75.90;;;;;;4972115;28;20554;-67
2023/09/07 03:15:27;;;;;;;6.20;5.60;;;21.40;76.00;;;;;;4978544;28;20458;-67
2023/09/07 03:17:56;;;;;;;5.80;5.30;;;21.50;76.00;;;;;;4991538;28;20525;-66
2023/09/07 03:20:24;;;;;;;5.23;4.83;;;21.50;75.80;;;;;;4972280;28;20482;-67
2023/09/07 03:22:54;;;;;;;6.10;5.60;;;21.50;75.80;;;;;;4971317;28;20511;-67
2023/09/07 03:25:22;;;;;;;5.80;5.37;;;21.50;76.10;;;;;;4990877;28;20438;-66
2023/09/07 03:27:51;;;;;;;6.07;5.57;;;21.50;76.20;;;;;;4989503;28;20883;-67
2023/09/07 03:30:19;;;;;;;6.37;5.87;;;21.40;76.10;;;;;;4988415;28;20821;-67
2023/09/07 03:32:48;;;;;;;5.80;5.40;;;21.40;76.30;;;;;;4987931;28;20545;-66
2023/09/07 03:35:17;;;;;;;5.10;4.73;;;21.40;76.40;;;;;;4996673;28;20461;-66
2023/09/07 03:37:45;;;;;;;5.43;5.03;;;21.40;76.30;;;;;;4991455;28;20450;-66
2023/09/07 03:40:14;;;;;;;6.10;5.60;;;21.40;76.40;;;;;;4977180;28;20481;-67
2023/09/07 03:42:43;;;;;;;6.77;6.10;;;21.30;76.30;;;;;;4971984;28;20550;-66
2023/09/07 03:45:13;;;;;;;5.87;5.47;;;21.30;76.40;;;;;;4990825;28;20555;-67
2023/09/07 03:47:41;;;;;;;6.17;5.67;;;21.40;76.10;;;;;;4990532;28;20930;-67
2023/09/07 03:50:11;;;;;;;7.50;6.10;;;21.30;75.70;;;;;;4973013;28;20477;-67
2023/09/07 03:52:39;;;;;;;5.53;5.13;;;21.20;75.90;;;;;;4970534;28;20471;-67
2023/09/07 03:55:09;;;;;;;7.13;6.53;;;21.10;76.30;;;;;;4978333;28;20819;-67
2023/09/07 03:57:40;;;;;;;5.57;5.17;;;21.00;76.50;;;;;;4985113;28;20466;-67
2023/09/07 04:00:09;;;;;;;6.30;5.70;;;21.00;76.60;;;;;;4989295;28;20530;-67
2023/09/07 04:02:41;;;;;;;5.97;5.47;;;20.90;76.40;;;;;;4989283;28;20966;-68
2023/09/07 04:05:11;;;;;;;6.40;5.90;;;20.90;76.80;;;;;;4991816;28;20466;-67
2023/09/07 04:07:39;;;;;;;6.57;5.97;;;20.90;76.70;;;;;;4988847;28;20457;-67
2023/09/07 04:10:08;;;;;;;6.70;6.17;;;20.90;76.70;;;;;;4973553;28;20469;-66
2023/09/07 04:12:37;;;;;;;7.80;6.27;;;21.00;77.20;;;;;;5001102;28;20466;-66
2023/09/07 04:15:08;;;;;;;6.40;5.80;;;21.00;76.80;;;;;;4990944;28;20460;-67
2023/09/07 04:17:40;;;;;;;6.40;5.80;;;21.00;77.10;;;;;;4985847;28;20944;-67
2023/09/07 04:20:11;;;;;;;7.50;6.80;;;21.00;77.10;;;;;;4981469;28;20518;-66
2023/09/07 04:22:40;;;;;;;5.80;5.30;;;21.00;77.00;;;;;;4978036;28;20467;-67
2023/09/07 04:25:09;;;;;;;5.90;5.50;;;21.10;76.90;;;;;;4973764;28;20456;-67
2023/09/07 04:27:37;;;;;;;6.27;5.87;;;21.00;77.00;;;;;;4970673;28;20443;-67
2023/09/07 04:30:10;;;;;;;5.90;5.40;;;21.10;76.90;;;;;;4972525;28;20502;-68
2023/09/07 04:32:38;;;;;;;6.00;5.40;;;21.10;76.80;;;;;;4978671;28;20466;-67
2023/09/07 04:35:08;;;;;;;7.20;6.50;;;21.00;76.80;;;;;;4985313;28;20465;-66
2023/09/07 04:37:37;;;;;;;7.60;6.47;;;21.00;76.90;;;;;;4989632;28;20544;-66
2023/09/07 04:40:08;;;;;;;6.37;5.87;;;21.00;77.00;;;;;;4975820;28;20478;-67
2023/09/07 04:42:38;;;;;;;5.77;5.37;;;21.00;77.00;;;;;;4987832;28;20457;-67
2023/09/07 04:45:09;;;;;;;6.10;5.70;;;21.00;76.90;;;;;;4988903;28;20473;-66
2023/09/07 04:47:37;;;;;;;6.93;6.33;;;21.00;77.00;;;;;;4992042;28;20468;-67
2023/09/07 04:50:07;;;;;;;5.87;5.37;;;21.00;77.10;;;;;;4970575;28;20454;-67
2023/09/07 04:52:36;;;;;;;6.77;6.17;;;21.00;77.30;;;;;;4986845;28;20538;-67
2023/09/07 04:55:05;;;;;;;5.80;5.30;;;21.00;77.00;;;;;;4988516;28;20458;-68
2023/09/07 04:57:36;;;;;;;6.50;6.07;;;21.00;77.00;;;;;;4984340;28;20464;-67
2023/09/07 05:00:09;;;;;;;5.60;5.20;;;21.00;77.30;;;;;;4985401;28;20458;-67
2023/09/07 05:02:41;;;;;;;6.37;5.77;;;21.00;77.10;;;;;;4985733;28;20984;-66
2023/09/07 05:05:10;;;;;;;5.83;5.40;;;21.10;77.00;;;;;;4983022;28;20473;-67
2023/09/07 05:07:38;;;;;;;6.50;5.83;;;21.10;76.90;;;;;;5019094;28;20485;-67
2023/09/07 05:10:12;;;;;;;6.50;5.90;;;21.00;77.20;;;;;;4969242;28;20993;-66
2023/09/07 05:12:40;;;;;;;7.13;5.93;;;21.00;77.00;;;;;;4976189;28;20458;-66
2023/09/07 05:15:11;;;;;;;7.17;6.10;;;21.00;77.50;;;;;;4983062;28;20466;-67
2023/09/07 05:17:39;;;;;;;6.00;5.40;;;21.00;77.10;;;;;;4977420;28;20497;-66
2023/09/07 05:20:09;;;;;;;6.30;5.70;;;21.00;77.20;;;;;;4980516;28;20599;-67
2023/09/07 05:22:39;;;;;;;7.23;6.63;;;21.10;77.00;;;;;;5010723;28;20463;-67
2023/09/07 05:25:09;;;;;;;6.97;6.37;;;21.10;77.20;;;;;;4977399;28;20479;-67
2023/09/07 05:27:38;;;;;;;7.47;6.83;;;21.10;77.10;;;;;;4978015;28;20466;-66
2023/09/07 05:30:07;;;;;;;5.67;5.13;;;21.20;76.80;;;;;;4972933;28;20521;-66
2023/09/07 05:32:36;;;;;;;7.07;6.37;;;21.30;77.00;;;;;;4978337;28;20466;-66
2023/09/07 05:35:05;;;;;;;6.20;5.73;;;21.40;75.80;;;;;;4983088;28;20491;-67
2023/09/07 05:37:34;;;;;;;6.57;6.07;;;21.40;76.50;;;;;;4978155;28;20532;-67
2023/09/07 05:40:03;;;;;;;7.60;6.33;;;21.40;76.40;;;;;;4981549;28;20481;-68
2023/09/07 05:42:31;;;;;;;7.67;6.97;;;21.40;76.50;;;;;;4981277;28;20567;-67
2023/09/07 05:45:00;;;;;;;6.40;5.80;;;21.40;76.60;;;;;;4979820;28;20552;-66
2023/09/07 05:47:29;;;;;;;7.40;6.40;;;21.50;76.90;;;;;;4980571;28;20468;-66
2023/09/07 05:49:59;;;;;;;8.73;6.83;;;21.50;76.60;;;;;;4991229;28;20470;-66
2023/09/07 05:52:27;;;;;;;6.67;6.07;;;21.60;76.30;;;;;;4975778;28;20469;-66
2023/09/07 05:54:55;;;;;;;7.50;6.80;;;21.80;75.60;;;;;;4974500;28;20534;-66
2023/09/07 05:57:23;;;;;;;7.80;7.10;;;21.80;75.50;;;;;;4972808;28;20467;-66
2023/09/07 05:59:52;;;;;;;7.10;6.40;;;22.00;75.70;;;;;;4976079;28;20454;-67
2023/09/07 06:02:20;;;;;;;8.90;6.97;;;22.00;74.90;;;;;;4972883;28;21390;-67
2023/09/07 06:04:49;;;;;;;7.30;6.60;;;21.90;75.40;;;;;;4975127;28;20991;-67
2023/09/07 06:07:19;;;;;;;7.30;6.23;;;21.90;75.80;;;;;;4978231;28;21127;-66
2023/09/07 06:09:47;;;;;;;8.20;7.60;;;21.80;75.70;;;;;;4973432;28;21024;-66
2023/09/07 06:12:15;;;;;;;6.90;6.30;;;22.00;75.60;;;;;;4972363;28;20474;-66
2023/09/07 06:14:45;;;;;;;10.03;7.60;;;22.00;75.60;;;;;;4979367;28;20472;-67
2023/09/07 06:17:13;;;;;;;8.20;7.07;;;21.80;75.80;;;;;;4977340;28;20467;-66
2023/09/07 06:19:42;;;;;;;7.40;6.80;;;21.80;75.90;;;;;;4978452;28;20446;-68
2023/09/07 06:22:10;;;;;;;8.47;6.87;;;22.00;75.80;;;;;;4967490;28;20498;-67
2023/09/07 06:24:41;;;;;;;6.07;5.57;;;22.00;75.60;;;;;;4976067;28;20487;-68
2023/09/07 06:27:09;;;;;;;6.30;5.80;;;22.10;75.60;;;;;;4975216;28;20470;-67
2023/09/07 06:29:37;;;;;;;7.73;6.53;;;22.20;75.30;;;;;;4979560;28;20862;-67
2023/09/07 06:32:06;;;;;;;7.43;6.73;;;22.20;75.40;;;;;;4978692;28;20455;-67
2023/09/07 06:34:35;;;;;;;5.63;5.23;;;22.30;75.20;;;;;;5004210;28;20470;-67
2023/09/07 06:37:04;;;;;;;7.17;6.50;;;22.50;74.90;;;;;;4977912;28;20472;-67
2023/09/07 06:39:33;;;;;;;7.10;6.57;;;22.60;74.20;;;;;;4981120;28;20457;-67
2023/09/07 06:42:03;;;;;;;7.30;6.70;;;22.60;74.10;;;;;;4979542;28;20511;-66
2023/09/07 06:44:39;;;;;;;7.17;6.57;;;22.60;74.00;;;;;;4982647;28;20470;-66
2023/09/07 06:47:14;;;;;;;8.20;6.30;;;22.90;74.10;;;;;;4979874;28;20482;-66
2023/09/07 06:49:42;;;;;;;6.43;5.83;;;22.90;73.80;;;;;;5012722;28;20461;-67
2023/09/07 06:52:11;;;;;;;6.77;6.07;;;22.90;73.60;;;;;;4975098;28;20478;-67
2023/09/07 06:54:39;;;;;;;7.97;7.17;;;23.00;73.50;;;;;;4983553;28;20558;-67
2023/09/07 06:57:12;;;;;;;6.73;6.20;;;23.10;73.30;;;;;;4969242;28;20459;-68
2023/09/07 06:59:40;;;;;;;8.80;6.23;;;23.10;73.30;;;;;;4998797;28;20565;-67
2023/09/07 07:02:08;;;;;;;6.43;5.97;;;23.10;73.10;;;;;;4974730;28;20474;-67
2023/09/07 07:04:37;;;;;;;5.90;5.50;;;23.10;73.30;;;;;;4985732;28;20467;-67
2023/09/07 07:07:06;;;;;;;5.70;5.30;;;23.20;72.90;;;;;;4969927;28;20544;-67
2023/09/07 07:09:34;;;;;;;5.70;5.20;;;23.30;72.90;;;;;;4980589;28;20512;-67
2023/09/07 07:12:04;;;;;;;6.90;6.20;;;23.30;73.10;;;;;;4987698;28;20541;-80
2023/09/07 07:14:34;;;;;;;6.17;5.70;;;23.40;72.30;;;;;;5016092;28;20466;-81
2023/09/07 07:17:04;;;;;;;6.87;6.27;;;23.40;72.60;;;;;;5029513;28;20473;-85
2023/09/07 07:19:34;;;;;;;7.30;6.10;;;23.50;73.20;;;;;;5022708;28;20464;-80
2023/09/07 07:22:04;;;;;;;6.87;6.30;;;23.50;72.60;;;;;;5035237;28;20488;-84
2023/09/07 07:24:34;;;;;;;8.00;7.30;;;23.60;72.60;;;;;;5028917;28;20533;-84
2023/09/07 07:27:03;;;;;;;6.90;6.30;;;23.60;72.10;;;;;;5030279;28;20457;-83
2023/09/07 07:29:35;;;;;;;6.27;5.77;;;23.50;72.60;;;;;;5037161;28;20470;-86
2023/09/07 07:32:04;;;;;;;7.27;6.53;;;23.50;72.70;;;;;;5027585;28;20462;-83
2023/09/07 07:34:34;;;;;;;5.30;4.90;;;23.60;72.50;;;;;;5043493;28;20519;-84
2023/09/07 07:37:05;;;;;;;6.97;6.37;;;23.60;72.20;;;;;;5017739;28;20486;-86
2023/09/07 07:39:33;;;;;;;6.37;5.87;;;23.70;72.10;;;;;;5042208;28;20943;-85
2023/09/07 07:42:03;;;;;;;7.57;6.97;;;23.70;72.40;;;;;;5020653;28;20570;-84
2023/09/07 07:44:31;;;;;;;9.27;6.73;;;23.80;72.40;;;;;;5062920;28;20465;-85
2023/09/07 07:47:01;;;;;;;5.60;5.10;;;23.90;72.40;;;;;;5006781;28;20555;-80
2023/09/07 07:49:31;;;;;;;5.50;5.10;;;24.10;72.00;;;;;;4991323;28;20825;-78
2023/09/07 07:52:00;;;;;;;6.00;5.50;;;24.20;71.20;;;;;;4974879;28;20849;-78
2023/09/07 07:54:28;;;;;;;6.47;5.90;;;24.30;71.10;;;;;;4993290;28;20682;-79
2023/09/07 07:57:00;;;;;;;6.40;5.90;;;24.40;71.10;;;;;;4999210;28;20968;-79
2023/09/07 07:59:28;;;;;;;7.23;6.73;;;24.50;71.70;;;;;;5003645;28;20467;-79
2023/09/07 08:01:57;;;;;;;6.13;5.73;;;24.50;70.70;;;;;;5017910;28;20473;-79
2023/09/07 08:04:27;;;;;;;9.07;8.17;;;24.50;71.00;;;;;;5004276;28;20454;-78
2023/09/07 08:06:58;;;;;;;8.17;7.23;;;24.50;70.90;;;;;;5037954;28;20440;-78
2023/09/07 08:09:26;;;;;;;6.30;5.80;;;24.50;71.30;;;;;;4990367;28;20500;-77
2023/09/07 08:11:55;;;;;;;8.87;8.03;;;24.50;70.80;;;;;;5007161;28;20496;-78
2023/09/07 08:14:25;;;;;;;6.40;5.87;;;24.60;71.00;;;;;;4995219;28;20556;-78
2023/09/07 08:16:54;;;;;;;8.47;7.67;;;24.50;71.20;;;;;;5032608;28;20468;-79
2023/09/07 08:19:22;;;;;;;7.90;7.30;;;24.40;71.40;;;;;;4999584;28;20517;-80
2023/09/07 08:21:53;;;;;;;7.50;6.70;;;24.40;71.30;;;;;;5019179;28;20540;-82
2023/09/07 08:24:21;;;;;;;6.30;5.83;;;24.50;71.50;;;;;;5027717;28;20453;-81
2023/09/07 08:26:54;;;;;;;6.60;6.10;;;24.60;71.20;;;;;;5029753;28;20990;-81
2023/09/07 08:29:24;;;;;;;6.20;5.70;;;24.70;71.40;;;;;;5028770;28;20838;-80
2023/09/07 08:31:53;;;;;;;7.17;6.57;;;24.70;71.30;;;;;;5025488;28;21040;-80
2023/09/07 08:34:25;;;;;;;8.23;7.50;;;24.80;71.40;;;;;;5051214;28;20450;-81
2023/09/07 08:36:58;;;;;;;6.43;5.93;;;24.90;70.40;;;;;;5028888;28;20877;-70
2023/09/07 08:39:27;;;;;;;6.60;5.97;;;24.90;70.80;;;;;;5008645;28;20482;-85
2023/09/07 08:41:58;;;;;;;7.60;7.00;;;25.10;70.70;;;;;;5009150;28;20455;-81
2023/09/07 08:44:30;;;;;;;4.87;4.57;;;25.10;70.30;;;;;;4995907;28;20470;-68
2023/09/07 08:47:00;;;;;;;7.23;4.93;;;25.20;72.10;;;;;;4984407;28;20470;-67
2023/09/07 08:49:30;;;;;;;5.40;4.90;;;25.30;71.80;;;;;;5016704;28;20472;-72
2023/09/07 08:52:01;;;;;;;6.00;5.60;;;25.50;71.30;;;;;;4994921;28;20490;-68
2023/09/07 08:54:30;;;;;;;6.03;5.53;;;25.60;71.20;;;;;;5001374;28;20474;-70
2023/09/07 08:56:59;;;;;;;5.83;5.30;;;25.60;69.60;;;;;;4992123;28;20475;-68
2023/09/07 08:59:27;;;;;;;6.43;6.00;;;25.70;70.20;;;;;;4996606;28;20469;-69
2023/09/07 09:01:59;;;;;;;6.60;6.00;;;25.70;70.40;;;;;;4987406;28;20466;-70
2023/09/07 09:04:28;;;;;;;6.80;6.20;;;25.80;69.70;;;;;;5008500;28;22679;-67
2023/09/07 09:06:58;;;;;;;6.70;6.10;;;25.80;69.30;;;;;;5002602;28;20565;-70
2023/09/07 09:09:28;;;;;;;7.67;7.10;;;25.70;69.80;;;;;;5022574;27;20979;-68
2023/09/07 09:12:08;;;;;;;5.27;4.87;;;25.80;69.80;;;;;;4992987;28;20487;-72
2023/09/07 09:14:36;;;;;;;6.07;5.57;;;25.80;69.90;;;;;;5012966;28;20465;-74
2023/09/07 09:17:05;;;;;;;6.30;5.80;;;25.90;69.80;;;;;;5005384;28;20561;-69
2023/09/07 09:19:35;;;;;;;8.20;7.50;;;25.90;69.90;;;;;;4981845;28;20863;-69
2023/09/07 09:22:04;;;;;;;7.20;6.70;;;25.90;69.20;;;;;;4978764;28;20497;-70
2023/09/07 09:24:35;;;;;;;7.13;6.60;;;25.90;69.40;;;;;;4981108;28;20477;-72
2023/09/07 09:27:05;;;;;;;7.13;6.53;;;25.90;69.80;;;;;;4978265;28;20575;-68
2023/09/07 09:29:34;;;;;;;6.50;5.93;;;25.90;69.60;;;;;;4983866;28;20848;-69
2023/09/07 09:32:04;;;;;;;6.47;5.17;;;25.90;69.80;;;;;;4975958;28;20467;-73
2023/09/07 09:34:35;;;;;;;7.10;6.40;;;26.00;70.10;;;;;;4982735;28;20513;-75
2023/09/07 09:37:05;;;;;;;7.43;6.83;;;26.00;69.80;;;;;;4976328;28;20472;-68
2023/09/07 09:39:36;;;;;;;5.93;5.53;;;26.00;69.60;;;;;;4998968;28;20458;-70
2023/09/07 09:42:05;;;;;;;6.83;6.33;;;26.00;70.00;;;;;;4991242;28;20472;-67
2023/09/07 09:44:36;;;;;;;7.10;6.50;;;26.10;69.70;;;;;;4996031;28;20479;-68
2023/09/07 09:47:05;;;;;;;5.77;5.30;;;26.10;69.90;;;;;;4986839;28;20461;-67
2023/09/07 09:49:33;;;;;;;7.17;6.60;;;26.10;69.80;;;;;;4995326;28;20886;-70
2023/09/07 09:52:02;;;;;;;7.07;6.40;;;26.10;69.90;;;;;;5001618;28;20527;-69
2023/09/07 09:54:33;;;;;;;7.70;7.00;;;26.10;69.80;;;;;;5005075;28;20801;-67
2023/09/07 09:57:03;;;;;;;7.90;7.20;;;26.00;69.40;;;;;;5008549;28;20457;-90
2023/09/07 09:59:31;;;;;;;8.33;7.73;;;26.00;69.90;;;;;;5016592;28;20597;-83
2023/09/07 10:02:01;;;;;;;8.97;8.27;;;25.90;69.50;;;;;;4990485;28;20487;-84
2023/09/07 10:04:33;;;;;;;9.90;8.53;;;25.90;70.30;;;;;;4993901;28;20475;-84
2023/09/07 10:07:05;;;;;;;9.03;8.33;;;25.90;70.10;;;;;;5004712;28;20456;-85
2023/09/07 10:09:34;;;;;;;7.40;6.80;;;26.00;69.80;;;;;;4994807;28;21389;-82
2023/09/07 10:12:08;;;;;;;7.43;6.83;;;26.00;70.00;;;;;;4992421;28;20453;-82
2023/09/07 10:14:40;;;;;;;7.63;7.00;;;26.00;69.80;;;;;;4997965;28;20467;-82
2023/09/07 10:17:09;;;;;;;6.83;6.20;;;26.10;69.60;;;;;;5008429;28;20484;-82
2023/09/07 10:19:39;;;;;;;7.10;6.50;;;26.10;69.60;;;;;;4998136;28;20663;-83
2023/09/07 10:22:22;;;;;;;6.80;6.30;;;26.20;69.40;;;;;;4993770;28;20484;-82
2023/09/07 10:25:00;;;;;;;6.23;5.83;;;26.30;69.20;;;;;;4998630;28;20596;-82
2023/09/07 10:27:39;;;;;;;8.73;8.03;;;26.30;69.30;;;;;;4998205;28;20487;-82
2023/09/07 10:30:12;;;;;;;8.10;7.40;;;26.40;69.20;;;;;;5009950;28;20466;-82
2023/09/07 10:32:41;;;;;;;7.40;6.90;;;26.40;69.00;;;;;;5003532;28;20482;-82
2023/09/07 10:35:17;;;;;;;7.67;7.00;;;26.40;69.00;;;;;;4994394;28;20474;-82
2023/09/07 10:37:47;;;;;;;8.63;7.73;;;26.50;69.10;;;;;;4996836;28;20964;-82
2023/09/07 10:40:21;;;;;;;8.60;7.90;;;26.50;68.90;;;;;;4988519;28;20488;-82
2023/09/07 10:43:02;;;;;;;9.37;8.40;;;26.50;69.20;;;;;;4986333;28;20467;-83
2023/09/07 10:45:30;;;;;;;8.93;8.23;;;26.60;68.90;;;;;;4981126;28;20463;-82
2023/09/07 10:47:59;;;;;;;8.17;7.40;;;26.60;69.10;;;;;;4984556;28;20456;-82
2023/09/07 10:50:28;;;;;;;8.43;7.63;;;26.60;68.70;;;;;;4989601;28;20472;-82
2023/09/07 10:52:56;;;;;;;8.10;7.40;;;26.60;68.90;;;;;;4978041;28;20509;-82
2023/09/07 10:55:24;;;;;;;7.70;7.10;;;26.60;69.00;;;;;;4975167;28;20510;-83
2023/09/07 10:57:54;;;;;;;7.47;6.87;;;26.70;68.50;;;;;;4980026;28;20566;-83
2023/09/07 11:00:22;;;;;;;7.00;6.50;;;26.80;68.40;;;;;;4981690;28;20556;-83
2023/09/07 11:02:50;;;;;;;9.07;8.27;;;26.90;68.30;;;;;;4980277;28;20473;-83
2023/09/07 11:05:19;;;;;;;8.63;8.03;;;26.90;68.30;;;;;;4978945;28;20528;-82
2023/09/07 11:07:47;;;;;;;7.07;6.47;;;27.00;68.30;;;;;;4979200;28;20965;-79
2023/09/07 11:10:16;;;;;;;8.00;7.40;;;27.20;67.70;;;;;;4979372;28;20519;-80
2023/09/07 11:12:44;;;;;;;8.40;7.70;;;27.40;67.40;;;;;;4976072;28;20519;-82
2023/09/07 11:15:14;;;;;;;8.20;7.60;;;27.70;66.60;;;;;;4974676;28;20464;-80
2023/09/07 11:17:46;;;;;;;7.50;6.90;;;27.90;65.90;;;;;;4978922;28;20516;-80
2023/09/07 11:20:14;;;;;;;7.67;7.17;;;28.20;65.30;;;;;;4981728;28;21182;-83
2023/09/07 11:22:43;;;;;;;6.87;6.37;;;28.40;64.80;;;;;;4976559;28;20515;-83
2023/09/07 11:25:36;;;;;;;7.83;7.13;;;28.50;64.50;;;;;;4989143;28;20860;-81
2023/09/07 11:28:05;;;;;;;7.83;7.13;;;28.70;64.20;;;;;;4990041;28;21281;-82
2023/09/07 11:30:35;;;;;;;7.37;6.63;;;28.80;64.10;;;;;;4998378;28;20509;-83
2023/09/07 11:33:05;;;;;;;5.70;5.30;;;28.80;64.00;;;;;;4988293;28;20519;-85
2023/09/07 11:35:35;;;;;;;6.33;5.87;;;28.90;63.90;;;;;;4993659;28;20458;-83
2023/09/07 11:38:08;;;;;;;7.13;6.53;;;29.00;63.70;;;;;;4989908;28;20460;-83
2023/09/07 11:40:36;;;;;;;6.77;6.20;;;29.00;63.80;;;;;;5006236;28;20538;-82
2023/09/07 11:43:05;;;;;;;7.63;7.03;;;29.10;63.80;;;;;;5013115;28;20463;-82
2023/09/07 11:45:34;;;;;;;7.53;6.70;;;29.10;63.70;;;;;;5014113;28;20502;-83
2023/09/07 11:48:03;;;;;;;6.60;6.10;;;29.20;63.60;;;;;;4986007;28;21134;-76
2023/09/07 11:50:32;;;;;;;6.10;5.70;;;29.20;63.50;;;;;;4996875;28;20465;-72
2023/09/07 11:53:00;;;;;;;6.07;5.57;;;29.20;63.60;;;;;;4991919;28;20462;-74
2023/09/07 11:55:28;;;;;;;6.40;6.00;;;29.30;63.60;;;;;;5005136;28;20458;-71
2023/09/07 11:57:57;;;;;;;6.60;6.10;;;29.30;63.60;;;;;;5002466;28;20493;-76
2023/09/07 12:00:26;;;;;;;6.20;5.80;;;29.30;63.50;;;;;;4991474;28;20485;-74
2023/09/07 12:02:56;;;;;;;6.33;5.87;;;29.30;63.50;;;;;;4988518;28;20951;-74
2023/09/07 12:05:24;;;;;;;5.77;5.43;;;29.30;63.40;;;;;;5005139;28;20495;-73
2023/09/07 12:07:52;;;;;;;6.30;5.90;;;29.40;63.40;;;;;;5003020;28;20472;-73
2023/09/07 12:10:21;;;;;;;7.10;6.50;;;29.40;63.40;;;;;;4995322;28;20587;-74
2023/09/07 12:12:50;;;;;;;6.60;6.10;;;29.40;63.30;;;;;;5003812;28;20837;-72
2023/09/07 12:15:18;;;;;;;5.93;5.50;;;29.50;63.20;;;;;;4998522;28;20472;-73
2023/09/07 12:17:46;;;;;;;6.37;5.87;;;29.50;63.20;;;;;;5006580;28;20459;-71
2023/09/07 12:20:16;;;;;;;6.20;5.80;;;29.50;63.00;;;;;;4996079;28;20559;-81
2023/09/07 12:22:44;;;;;;;6.70;6.20;;;29.50;63.10;;;;;;4990304;28;20547;-75
2023/09/07 12:25:13;;;;;;;6.20;5.77;;;29.50;63.10;;;;;;4999174;28;20486;-76
2023/09/07 12:27:45;;;;;;;6.60;6.10;;;29.50;63.10;;;;;;4988552;28;20464;-71
2023/09/07 12:30:24;;;;;;;6.60;6.17;;;29.60;63.20;;;;;;4992325;28;20534;-76
2023/09/07 12:32:52;;;;;;;5.93;5.47;;;29.60;63.10;;;;;;4990672;28;20472;-72
2023/09/07 12:35:23;;;;;;;5.87;5.47;;;29.60;63.20;;;;;;4995710;28;20477;-71
2023/09/07 12:37:52;;;;;;;5.97;5.50;;;29.60;63.10;;;;;;4994139;28;20461;-70
2023/09/07 12:40:20;;;;;;;5.60;5.20;;;29.60;63.20;;;;;;4999987;28;20462;-70
2023/09/07 12:42:48;;;;;;;5.70;5.30;;;29.50;63.30;;;;;;4998837;28;20468;-70
2023/09/07 12:45:16;;;;;;;6.50;6.07;;;29.50;63.30;;;;;;4989990;28;20580;-79
2023/09/07 12:47:45;;;;;;;6.57;6.17;;;29.60;63.20;;;;;;4988322;28;20501;-79
2023/09/07 12:50:13;;;;;;;5.93;5.53;;;29.60;63.00;;;;;;5008464;28;20466;-80
2023/09/07 12:52:43;;;;;;;6.07;5.67;;;29.70;63.00;;;;;;4993831;28;20904;-78
2023/09/07 12:55:11;;;;;;;6.97;6.40;;;29.70;63.00;;;;;;4992621;28;20465;-80
2023/09/07 12:57:40;;;;;;;6.50;5.93;;;29.60;63.00;;;;;;4985699;28;20455;-80
2023/09/07 13:00:10;;;;;;;6.33;5.83;;;29.60;63.10;;;;;;4993233;28;20719;-82